Terminal Aerodrome Forecast
Issued by NWS Bismarck, ND

Home | Current Version | Previous Version | Text Only | Print | Product List | Glossary Off
Versions: 1 2 3 4 5 6 7 8 9 10 11 12 13 14 15 16 17 18 19 20 21 22 23 24

000
FTUS43 KBIS 181006 AAB
TAFBIS
TAF AMD
KBIS 181006Z 1810/1906 31008KT P6SM SCT020 BKN035
      TEMPO 1810/1812 BKN025 OVC035
     FM181300 32013G18KT P6SM BKN045
     FM181700 31013G19KT P6SM FEW250
     FM190000 24003KT P6SM SKC=

USA.gov is the U.S. government's official web portal to all federal, state and local government web resources and services.